This is the latest recevied weather packets stored in our database for station/object K4CRS-13. If no packets are shown the sender has not sent any weather packets the latest 10 day(s).
| Time | Temp. | Humidity | Pressure | Rain* | Wind** | Luminosity | Snow |
|---|---|---|---|---|---|---|---|
| 1787875886 | 27.78° C | 76% | 1049.4 hPa | 0 mm | - | 11 W/m² | - |
| 1787875586 | 28.33° C | 74% | 1049.4 hPa | 0 mm | - | 16 W/m² | - |
| 1787875286 | 29.44° C | 72% | 1049.2 hPa | 0 mm | - | 23 W/m² | - |
| 1787874983 | 29.44° C | 71% | 1048.9 hPa | 0 mm | - | 30 W/m² | - |
| 1787874679 | 28.89° C | 71% | 1049.4 hPa | 0 mm | - | 36 W/m² | - |
| 1787874377 | 28.89° C | 69% | 1049.1 hPa | 0 mm | - | 42 W/m² | - |
| 1787874072 | 29.44° C | 69% | 1049.2 hPa | 0 mm | - | 46 W/m² | - |
| 1787873767 | 29.44° C | 68% | 1049 hPa | 0 mm | - | 48 W/m² | - |
| 1787873462 | 29.44° C | 67% | 1049.2 hPa | 0 mm | - | 60 W/m² | - |
| 1787873157 | 29.44° C | 67% | 1049.4 hPa | 0 mm | - | 65 W/m² | - |
| 1787872855 | 30° C | 66% | 1049.3 hPa | 0 mm | - | 73 W/m² | - |
| 1787872551 | 30° C | 66% | 1049.3 hPa | 0 mm | - | 79 W/m² | - |
| 1787872246 | 30° C | 65% | 1049.2 hPa | 0 mm | - | 87 W/m² | - |
| 1787871946 | 30° C | 64% | 1049.4 hPa | 0 mm | - | 97 W/m² | - |
| 1787871641 | 30.56° C | 64% | 1049.4 hPa | 0 mm | - | 118 W/m² | - |
| 1787871337 | 30.56° C | 63% | 1049.7 hPa | 0 mm | - | 131 W/m² | - |
| 1787871032 | 30.56° C | 63% | 1049.5 hPa | 0 mm | - | 149 W/m² | - |
| 1787870731 | 30.56° C | 63% | 1049.6 hPa | 0 mm | - | 170 W/m² | - |
| 1787870427 | 30.56° C | 64% | 1049.4 hPa | 0 mm | - | 174 W/m² | - |
| 1787870121 | 30.56° C | 64% | 1049.3 hPa | 0 mm | - | 188 W/m² | - |
| 1787869820 | 30.56° C | 66% | 1049.4 hPa | 0 mm | - | 209 W/m² | - |
| 1787869515 | 30° C | 63% | 1049.5 hPa | 0 mm | - | 203 W/m² | - |
| 1787869210 | 30° C | 64% | 1049.6 hPa | 0 mm | - | 215 W/m² | - |
| 1787868909 | 30.56° C | 64% | 1049.2 hPa | 0 mm | - | 235 W/m² | - |
| 1787868608 | 30.56° C | 63% | 1049.3 hPa | 0 mm | - | 252 W/m² | - |
* Rain latest hour (hover to see other rain measurements)
** Current wind speed in m/s (hover to see current wind gust speed)